createdAt,value
2022-11-15T00:03:13.673Z,92.37
2022-11-15T00:08:28.072Z,92.10
2022-11-15T00:13:52.427Z,92.13
2022-11-15T00:19:30.650Z,92.22
2022-11-15T00:24:50.268Z,92.17
2022-11-15T00:30:07.562Z,92.10
2022-11-15T00:35:44.663Z,91.92
2022-11-15T00:41:36.468Z,92.20
2022-11-15T00:47:19.421Z,92.00
2022-11-15T00:52:43.584Z,91.70
2022-11-15T00:58:09.064Z,91.58
2022-11-15T01:03:43.893Z,91.30
2022-11-15T01:08:57.333Z,91.15
2022-11-15T01:14:52.150Z,90.92
2022-11-15T01:20:42.566Z,90.91
2022-11-15T01:26:42.334Z,90.08
2022-11-15T01:32:04.590Z,89.77
2022-11-15T01:37:17.008Z,89.52
2022-11-15T01:42:32.927Z,89.24
2022-11-15T01:47:54.244Z,89.31
2022-11-15T01:53:14.931Z,88.48
2022-11-15T01:58:29.210Z,88.74
2022-11-15T02:04:41.100Z,88.08
2022-11-15T02:10:08.313Z,88.11
2022-11-15T02:15:22.511Z,87.82
2022-11-15T02:20:49.840Z,87.48
2022-11-15T02:26:20.811Z,87.56
2022-11-15T02:31:41.142Z,87.45
2022-11-15T02:37:28.097Z,88.02
2022-11-15T02:43:48.521Z,88.12
2022-11-15T02:56:12.061Z,88.18
2022-11-15T03:01:38.296Z,87.87
2022-11-15T03:06:58.576Z,87.82
2022-11-15T03:12:20.091Z,87.83
2022-11-15T03:17:57.749Z,87.49
2022-11-15T03:23:20.371Z,87.47
2022-11-15T03:28:37.727Z,87.18
2022-11-15T03:33:56.326Z,86.92
2022-11-15T03:39:41.932Z,87.10
2022-11-15T03:46:35.660Z,87.04
2022-11-15T03:52:08.170Z,87.71
2022-11-15T03:58:09.709Z,87.05
2022-11-15T04:03:42.713Z,86.99
2022-11-15T04:09:21.867Z,86.74
2022-11-15T04:14:35.093Z,87.38
2022-11-15T04:20:03.700Z,87.34
2022-11-15T04:25:22.919Z,87.01
2022-11-15T04:30:46.121Z,87.15
2022-11-15T04:36:15.650Z,87.31
2022-11-15T04:41:27.469Z,87.23
2022-11-15T04:46:40.532Z,87.00
2022-11-15T04:51:52.802Z,87.28
2022-11-15T04:57:04.511Z,87.26
2022-11-15T05:02:17.916Z,87.21
2022-11-15T05:07:29.656Z,87.09
2022-11-15T05:12:41.530Z,87.73
2022-11-15T05:18:00.004Z,88.07
2022-11-15T05:23:11.987Z,87.72
2022-11-15T05:28:23.694Z,87.95
2022-11-15T05:33:41.026Z,88.15
2022-11-15T05:38:53.351Z,87.50
2022-11-15T05:44:10.419Z,87.87
2022-11-15T05:49:32.372Z,88.04
2022-11-15T05:54:47.892Z,87.18
2022-11-15T06:00:00.009Z,87.26
2022-11-15T06:05:13.265Z,86.53
2022-11-15T06:10:25.338Z,86.14
2022-11-15T06:15:37.500Z,86.72
2022-11-15T06:20:51.109Z,86.56
2022-11-15T06:26:03.428Z,85.94
2022-11-15T06:31:15.280Z,85.56
2022-11-15T06:36:28.668Z,85.17
2022-11-15T06:41:40.458Z,84.88
2022-11-15T06:46:52.663Z,84.78
2022-11-15T06:52:06.591Z,84.50
2022-11-15T06:57:19.757Z,84.46
2022-11-15T07:02:33.412Z,84.88
2022-11-15T07:07:53.590Z,84.50
2022-11-15T07:13:06.733Z,84.62
2022-11-15T07:18:31.053Z,84.08
2022-11-15T07:23:46.366Z,84.88
2022-11-15T07:29:00.901Z,84.09
2022-11-15T07:34:13.685Z,83.27
2022-11-15T07:39:26.701Z,83.54
2022-11-15T07:44:38.904Z,82.86
2022-11-15T07:49:50.953Z,82.98
2022-11-15T07:55:04.186Z,82.46
2022-11-15T08:00:17.233Z,82.11
2022-11-15T08:05:31.377Z,82.40
2022-11-15T08:10:44.635Z,83.16
2022-11-15T08:16:02.268Z,82.14
2022-11-15T08:21:18.527Z,81.86
2022-11-15T08:26:32.393Z,82.80
2022-11-15T08:31:50.650Z,81.86
2022-11-15T08:37:55.887Z,82.04
2022-11-15T08:49:06.440Z,80.43
2022-11-15T08:54:18.397Z,80.61
2022-11-15T08:59:31.735Z,80.60
2022-11-15T09:04:44.483Z,80.66
2022-11-15T09:09:55.971Z,80.52
2022-11-15T09:15:18.841Z,79.86
2022-11-15T09:20:37.000Z,80.40
2022-11-15T09:25:49.014Z,80.14
2022-11-15T09:31:22.416Z,79.18
2022-11-15T09:36:34.550Z,78.23
2022-11-15T09:42:28.135Z,77.40
2022-11-15T09:48:33.195Z,78.03
2022-11-15T09:54:37.535Z,78.74
2022-11-15T09:59:40.969Z,78.25
2022-11-15T10:04:38.916Z,79.99
2022-11-15T10:09:55.066Z,79.42
2022-11-15T10:14:54.616Z,79.36
2022-11-15T10:20:13.160Z,79.73
2022-11-15T10:25:22.190Z,79.83
2022-11-15T10:30:18.163Z,79.00
2022-11-15T10:35:27.348Z,78.74
2022-11-15T10:40:33.323Z,79.31
2022-11-15T10:45:30.626Z,79.94
2022-11-15T10:51:03.279Z,79.94
2022-11-15T10:56:04.185Z,79.85
2022-11-15T11:00:59.060Z,79.84
2022-11-15T11:06:07.019Z,80.55
2022-11-15T11:11:05.571Z,79.10
2022-11-15T11:16:14.286Z,79.92
2022-11-15T11:21:19.936Z,79.45
2022-11-15T11:26:32.233Z,79.38
2022-11-15T11:31:34.563Z,79.57
2022-11-15T11:36:44.805Z,79.04
2022-11-15T11:42:01.016Z,79.07
2022-11-15T11:47:03.925Z,79.79
2022-11-15T11:52:07.954Z,79.81
2022-11-15T11:57:05.134Z,80.02
2022-11-15T12:02:11.440Z,80.42
2022-11-15T12:07:13.722Z,79.93
2022-11-15T12:12:33.278Z,79.88
2022-11-15T12:17:34.064Z,80.13
2022-11-15T12:22:51.164Z,80.51
2022-11-15T12:27:51.729Z,78.78
2022-11-15T12:32:55.793Z,79.18
2022-11-15T12:38:04.683Z,79.18
2022-11-15T12:43:16.500Z,79.39
2022-11-15T12:48:59.688Z,78.69
2022-11-15T12:53:58.621Z,78.06
2022-11-15T12:59:00.233Z,79.09
2022-11-15T13:04:25.353Z,78.80
2022-11-15T13:10:01.044Z,77.17
2022-11-15T13:14:58.911Z,78.22
2022-11-15T13:19:59.882Z,77.86
2022-11-15T13:24:58.447Z,78.15
2022-11-15T13:30:06.804Z,78.21
2022-11-15T13:35:05.893Z,78.69
2022-11-15T13:40:32.644Z,79.12
2022-11-15T13:45:47.258Z,79.95
2022-11-15T13:50:51.503Z,79.48
2022-11-15T13:55:49.665Z,79.31
2022-11-15T14:00:48.458Z,79.44
2022-11-15T14:06:18.861Z,80.00
2022-11-15T14:11:22.372Z,80.03
2022-11-15T14:16:28.285Z,80.02
2022-11-15T14:21:23.513Z,79.91
2022-11-15T14:26:34.010Z,80.14
2022-11-15T14:31:28.772Z,79.84
2022-11-15T14:36:25.676Z,79.81
2022-11-15T14:41:25.829Z,79.81
2022-11-15T14:46:24.262Z,80.25
2022-11-15T14:51:27.200Z,80.09
2022-11-15T14:56:34.827Z,80.86
2022-11-15T15:01:40.786Z,81.39
2022-11-15T15:06:54.537Z,81.49
2022-11-15T15:11:50.657Z,81.52
2022-11-15T15:16:49.998Z,82.11
2022-11-15T15:21:48.985Z,81.09
2022-11-15T15:26:44.509Z,81.15
2022-11-15T15:31:37.814Z,81.47
2022-11-15T15:36:31.116Z,81.53
2022-11-15T15:41:26.086Z,81.67
2022-11-15T15:46:20.872Z,81.72
2022-11-15T15:51:20.125Z,82.07
2022-11-15T15:56:16.335Z,82.29
2022-11-15T16:01:11.041Z,82.89
2022-11-15T16:06:07.253Z,82.98
2022-11-15T16:11:04.777Z,83.35
2022-11-15T16:15:59.635Z,83.42
2022-11-15T16:27:33.204Z,83.92
2022-11-15T16:32:44.544Z,83.66
2022-11-15T16:43:39.984Z,83.55
2022-11-15T16:48:44.533Z,83.90
2022-11-15T16:53:49.874Z,84.37
2022-11-15T16:58:46.259Z,84.01
2022-11-15T17:03:42.310Z,84.73
2022-11-15T17:08:37.700Z,84.49
2022-11-15T17:13:33.622Z,84.16
2022-11-15T17:18:36.522Z,84.37
2022-11-15T17:23:35.131Z,84.79
2022-11-15T17:28:28.876Z,85.01
2022-11-15T17:33:30.101Z,84.67
2022-11-15T17:38:42.833Z,84.87
2022-11-15T17:43:44.171Z,85.09
2022-11-15T17:48:59.520Z,85.79
2022-11-15T17:54:23.173Z,85.31
2022-11-15T17:59:21.376Z,85.48
2022-11-15T18:04:23.135Z,84.99
2022-11-15T18:09:22.045Z,85.36
2022-11-15T18:14:25.462Z,85.18
2022-11-15T18:19:24.985Z,85.06
2022-11-15T18:25:13.190Z,85.57
2022-11-15T18:30:29.232Z,85.99
2022-11-15T18:35:24.111Z,85.51
2022-11-15T18:40:28.738Z,85.98
2022-11-15T18:45:24.539Z,85.71
2022-11-15T18:50:20.448Z,86.23
2022-11-15T21:46:08.393Z,88.47
2022-11-15T22:13:24.179Z,87.18
2022-11-15T22:52:57.556Z,87.15
